createdAt,value
2019-03-04T00:03:00.058Z,8.94
2019-03-04T00:07:54.655Z,8.66
2019-03-04T00:12:49.266Z,8.50
2019-03-04T00:17:44.782Z,8.39
2019-03-04T00:22:39.437Z,8.28
2019-03-04T00:27:34.035Z,8.19
2019-03-04T00:32:28.600Z,8.06
2019-03-04T00:37:23.873Z,7.92
2019-03-04T00:42:18.439Z,7.78
2019-03-04T00:47:13.032Z,7.66
2019-03-04T00:52:07.616Z,7.58
2019-03-04T00:57:02.207Z,7.41
2019-03-04T01:01:56.793Z,7.49
2019-03-04T01:06:51.475Z,7.44
2019-03-04T01:11:46.060Z,7.36
2019-03-04T01:16:40.674Z,7.31
2019-03-04T01:21:35.269Z,7.25
2019-03-04T01:26:29.843Z,7.24
2019-03-04T01:31:24.424Z,7.17
2019-03-04T01:36:19.006Z,7.18
2019-03-04T01:41:13.588Z,7.09
2019-03-04T01:46:08.173Z,7.03
2019-03-04T01:51:02.743Z,6.94
2019-03-04T01:55:57.322Z,6.89
2019-03-04T02:00:51.930Z,6.95
2019-03-04T02:05:46.580Z,7.26
2019-03-04T02:10:41.188Z,8.02
2019-03-04T02:15:35.829Z,8.50
2019-03-04T02:20:30.496Z,8.89
2019-03-04T02:25:47.271Z,8.81
2019-03-04T02:30:41.912Z,9.05
2019-03-04T02:35:36.629Z,8.90
2019-03-04T02:40:31.197Z,8.68
2019-03-04T02:45:25.781Z,8.68
2019-03-04T02:50:20.351Z,8.52
2019-03-04T02:55:17.641Z,7.94
2019-03-04T03:00:19.111Z,7.68
2019-03-04T03:05:14.424Z,7.54
2019-03-04T03:10:16.827Z,7.20
2019-03-04T03:15:17.798Z,7.03
2019-03-04T03:20:14.172Z,6.96
2019-03-04T03:25:11.841Z,6.79
2019-03-04T03:30:13.614Z,6.75
2019-03-04T03:35:10.486Z,6.83
2019-03-04T03:40:09.980Z,7.07
2019-03-04T03:45:07.856Z,7.05
2019-03-04T03:50:02.513Z,6.78
2019-03-04T03:54:57.084Z,6.77
2019-03-04T03:59:51.665Z,6.66
2019-03-04T04:04:46.331Z,6.76
2019-03-04T04:09:40.904Z,6.68
2019-03-04T04:14:35.487Z,6.58
2019-03-04T04:19:30.076Z,6.27
2019-03-04T04:24:24.659Z,6.26
2019-03-04T04:29:19.298Z,6.28
2019-03-04T04:34:14.131Z,6.15
2019-03-04T04:39:08.783Z,6.19
2019-03-04T04:44:03.449Z,6.09
2019-03-04T04:48:58.032Z,6.07
2019-03-04T04:53:52.605Z,5.93
2019-03-04T04:58:47.188Z,5.80
2019-03-04T05:03:41.775Z,5.70
2019-03-04T05:08:36.338Z,5.68
2019-03-04T05:13:30.937Z,5.68
2019-03-04T05:18:25.534Z,5.64
2019-03-04T05:23:20.099Z,5.57
2019-03-04T05:28:14.682Z,5.64
2019-03-04T05:33:09.251Z,5.65
2019-03-04T05:38:03.834Z,5.63
2019-03-04T05:42:58.404Z,5.63
2019-03-04T05:47:53.023Z,5.64
2019-03-04T05:52:47.602Z,5.72
2019-03-04T05:57:42.188Z,5.81
2019-03-04T06:02:36.756Z,5.91
2019-03-04T06:07:32.994Z,6.00
2019-03-04T06:12:27.595Z,6.00
2019-03-04T06:17:22.178Z,6.04
2019-03-04T06:22:16.740Z,6.17
2019-03-04T06:27:11.348Z,6.36
2019-03-04T06:32:05.923Z,6.48
2019-03-04T06:37:00.507Z,6.71
2019-03-04T06:41:55.071Z,7.32
2019-03-04T06:46:50.352Z,8.16
2019-03-04T06:51:45.174Z,8.51
2019-03-04T06:56:59.092Z,8.51
2019-03-04T07:02:16.027Z,8.55
2019-03-04T07:07:10.602Z,8.87
2019-03-04T07:12:05.314Z,9.41
2019-03-04T07:16:59.896Z,10.23
2019-03-04T07:21:54.618Z,11.34
2019-03-04T07:26:49.277Z,11.23
2019-03-04T07:31:44.925Z,11.58
2019-03-04T07:36:39.583Z,11.94
2019-03-04T07:41:34.324Z,13.34
2019-03-04T07:46:29.367Z,14.16
2019-03-04T07:51:24.237Z,14.50
2019-03-04T07:56:18.958Z,14.92
2019-03-04T08:01:14.097Z,15.08
2019-03-04T08:06:10.548Z,14.50
2019-03-04T08:11:37.147Z,14.46
2019-03-04T08:16:32.372Z,14.70
2019-03-04T08:21:28.190Z,13.90
2019-03-04T08:26:22.786Z,13.38
2019-03-04T08:31:17.381Z,13.77
2019-03-04T08:36:12.038Z,14.10
2019-03-04T08:41:06.841Z,14.92
2019-03-04T08:46:01.529Z,14.48
2019-03-04T08:50:56.135Z,14.07
2019-03-04T08:55:50.800Z,13.94
2019-03-04T09:00:45.439Z,13.83
2019-03-04T09:05:42.770Z,13.44
2019-03-04T09:10:38.784Z,13.28
2019-03-04T09:15:33.517Z,13.22
2019-03-04T09:20:28.282Z,13.35
2019-03-04T09:25:36.034Z,13.41
2019-03-04T09:30:30.955Z,13.30
2019-03-04T09:35:25.661Z,12.86
2019-03-04T09:40:23.098Z,12.58
2019-03-04T09:45:18.496Z,12.24
2019-03-04T09:50:25.763Z,11.63
2019-03-04T09:55:21.924Z,11.74
2019-03-04T10:00:42.904Z,11.46
2019-03-04T10:06:14.502Z,11.12
2019-03-04T10:11:34.714Z,10.39
2019-03-04T10:16:33.964Z,10.47
2019-03-04T10:21:44.536Z,9.96
2019-03-04T10:27:25.038Z,9.34
2019-03-04T10:32:36.135Z,8.92
2019-03-04T10:37:41.293Z,8.64
2019-03-04T10:43:16.853Z,8.63
2019-03-04T10:48:11.437Z,8.64
2019-03-04T10:53:06.587Z,8.45
2019-03-04T10:58:01.211Z,8.17
2019-03-04T11:02:55.872Z,8.20
2019-03-04T11:07:50.532Z,8.30
2019-03-04T11:12:45.173Z,8.47
2019-03-04T11:17:39.768Z,8.51
2019-03-04T11:22:34.347Z,8.60
2019-03-04T11:27:29.068Z,8.58
2019-03-04T11:32:23.643Z,8.55
2019-03-04T11:37:18.251Z,8.42
2019-03-04T11:42:12.904Z,8.43
2019-03-04T11:47:07.482Z,8.26
2019-03-04T11:52:02.094Z,8.28
2019-03-04T11:56:56.709Z,8.38
2019-03-04T12:01:51.422Z,8.47
2019-03-04T12:06:46.154Z,8.49
2019-03-04T12:11:40.730Z,8.60
2019-03-04T12:16:35.866Z,8.63
2019-03-04T12:21:30.688Z,8.72
2019-03-04T12:26:25.269Z,8.76
2019-03-04T12:31:20.102Z,8.84
2019-03-04T12:36:14.664Z,8.83
2019-03-04T12:41:09.448Z,8.95
2019-03-04T12:46:04.028Z,9.05
2019-03-04T12:50:59.491Z,9.04
2019-03-04T12:55:54.080Z,9.11
2019-03-04T13:00:48.887Z,9.19
2019-03-04T13:05:53.782Z,9.28
2019-03-04T13:11:05.906Z,9.26
2019-03-04T13:16:14.918Z,9.26
2019-03-04T13:21:21.820Z,9.25
2019-03-04T13:26:16.413Z,9.18
2019-03-04T13:31:11.438Z,9.17
2019-03-04T13:36:08.183Z,9.30
2019-03-04T13:41:14.438Z,9.45
2019-03-04T13:46:20.784Z,9.73
2019-03-04T13:51:26.967Z,9.82
2019-03-04T13:56:21.547Z,9.93
2019-03-04T14:01:16.363Z,10.06
2019-03-04T14:06:10.962Z,10.10
2019-03-04T14:11:06.278Z,10.21
2019-03-04T14:16:00.952Z,10.21
2019-03-04T14:20:55.540Z,10.44
2019-03-04T14:25:53.710Z,10.82
2019-03-04T14:30:48.303Z,10.92
2019-03-04T14:35:42.974Z,11.18
2019-03-04T14:40:37.625Z,11.37
2019-03-04T14:45:32.285Z,11.50
2019-03-04T14:50:28.528Z,11.64
2019-03-04T14:55:30.100Z,11.75
2019-03-04T15:00:31.935Z,11.81
2019-03-04T15:05:27.024Z,11.51
2019-03-04T15:10:21.912Z,11.40
2019-03-04T15:15:26.387Z,11.26
2019-03-04T15:20:24.487Z,11.29
2019-03-04T15:25:30.589Z,11.52
2019-03-04T15:30:25.441Z,11.42
2019-03-04T15:35:31.903Z,11.24
2019-03-04T15:40:29.004Z,11.07
2019-03-04T15:45:24.056Z,11.00
2019-03-04T15:50:18.926Z,10.94
2019-03-04T15:55:14.111Z,10.75
2019-03-04T16:00:15.815Z,10.77
2019-03-04T16:05:15.030Z,10.65
2019-03-04T16:10:24.250Z,10.62
2019-03-04T16:15:21.633Z,10.63
2019-03-04T16:20:19.440Z,10.47
2019-03-04T16:25:24.677Z,10.21
2019-03-04T16:30:24.584Z,9.87
2019-03-04T16:35:20.146Z,9.66
2019-03-04T16:40:23.590Z,9.47
2019-03-04T16:45:20.788Z,9.42
2019-03-04T16:50:24.531Z,9.38
2019-03-04T16:55:19.183Z,9.24
2019-03-04T17:00:21.898Z,9.16
2019-03-04T17:05:19.070Z,8.97
2019-03-04T17:10:17.511Z,8.78
2019-03-04T17:15:16.950Z,8.69
2019-03-04T17:20:14.971Z,8.62
2019-03-04T17:25:19.360Z,8.63
2019-03-04T17:30:20.069Z,8.70
2019-03-04T17:35:18.756Z,8.71
2019-03-04T17:40:17.524Z,8.66
2019-03-04T17:45:16.360Z,8.68
2019-03-04T17:50:33.135Z,8.71
2019-03-04T17:55:27.769Z,8.74
2019-03-04T18:00:22.561Z,8.80
2019-03-04T18:05:18.157Z,8.85
2019-03-04T18:10:18.736Z,8.85
2019-03-04T18:15:20.266Z,8.84
2019-03-04T18:20:16.341Z,8.80
2019-03-04T18:25:21.057Z,8.78
2019-03-04T18:30:39.863Z,8.79
2019-03-04T18:36:01.184Z,8.26
2019-03-04T18:41:26.054Z,7.96
2019-03-04T18:46:48.886Z,7.70
2019-03-04T18:51:43.522Z,7.50
2019-03-04T18:56:38.164Z,7.34
2019-03-04T19:01:32.873Z,7.43
2019-03-04T19:06:27.560Z,7.40
2019-03-04T19:11:23.751Z,7.48
2019-03-04T19:16:18.677Z,7.64
2019-03-04T19:21:13.243Z,7.78
2019-03-04T19:26:07.967Z,7.91
2019-03-04T19:31:02.697Z,8.00
2019-03-04T19:35:57.286Z,7.90
2019-03-04T19:40:51.880Z,7.91
2019-03-04T19:45:46.713Z,7.96
2019-03-04T19:50:41.355Z,8.00
2019-03-04T19:55:36.809Z,7.99
2019-03-04T20:00:33.163Z,8.02
2019-03-04T20:05:30.758Z,7.93
2019-03-04T20:10:25.510Z,7.78
2019-03-04T20:15:26.385Z,7.80
2019-03-04T20:20:21.269Z,7.83
2019-03-04T20:25:17.866Z,7.78
2019-03-04T20:30:15.927Z,7.75
2019-03-04T20:35:17.372Z,7.73
2019-03-04T20:40:12.918Z,7.88
2019-03-04T20:45:15.650Z,7.93
2019-03-04T20:50:17.772Z,7.99
2019-03-04T20:55:14.073Z,8.02
2019-03-04T21:00:26.637Z,8.20
2019-03-04T21:05:21.388Z,8.31
2019-03-04T21:10:17.284Z,7.78
2019-03-04T21:15:14.539Z,6.68
2019-03-04T21:20:19.823Z,5.95
2019-03-04T21:25:48.801Z,5.65
2019-03-04T21:30:59.549Z,5.42
2019-03-04T21:36:03.824Z,5.29
2019-03-04T21:41:20.903Z,5.19
2019-03-04T21:46:51.509Z,5.07
2019-03-04T21:51:59.687Z,5.18
2019-03-04T21:57:23.243Z,5.24
2019-03-04T22:02:46.308Z,5.47
2019-03-04T22:07:41.417Z,5.55
2019-03-04T22:12:36.098Z,5.63
2019-03-04T22:17:30.654Z,5.63
2019-03-04T22:22:25.248Z,5.62
2019-03-04T22:27:19.885Z,5.51
2019-03-04T22:32:14.493Z,5.46
2019-03-04T22:37:09.128Z,5.35
2019-03-04T22:42:03.807Z,5.34
2019-03-04T22:46:58.403Z,5.23
2019-03-04T22:51:53.007Z,5.19
2019-03-04T22:56:47.599Z,5.07
2019-03-04T23:01:47.311Z,5.03
2019-03-04T23:07:04.954Z,4.99
2019-03-04T23:12:15.986Z,4.93
2019-03-04T23:17:10.636Z,5.07
2019-03-04T23:22:05.289Z,5.22
2019-03-04T23:27:00.028Z,5.17
2019-03-04T23:31:54.692Z,5.06
2019-03-04T23:36:49.278Z,5.00
2019-03-04T23:41:43.869Z,4.86
2019-03-04T23:46:38.515Z,4.63
2019-03-04T23:51:33.106Z,4.51
2019-03-04T23:56:27.704Z,4.50
